Time;durP1;ratioP1;P1;durP2;ratioP2;P2;SDS_P1;SDS_P2;PMS_P1;PMS_P2;Temp;Humidity;BMP_temperature;BMP_pressure;BME280_temperature;BME280_humidity;BME280_pressure;Samples;Min_cycle;Max_cycle;Signal;HPM_P1;HPM_P2
2024/02/16 00:00:08;;;;;;;0.50;0.50;;;;;;;9.86;79.22;96670.69;29395;218;63018;-57
2024/02/16 00:00:39;;;;;;;0.50;0.50;;;;;;;9.87;79.24;96677.72;29395;231;63004;-56
2024/02/16 00:01:10;;;;;;;0.50;0.50;;;;;;;9.88;79.06;96673.94;29395;227;63009;-56
2024/02/16 00:01:43;;;;;;;0.50;0.50;;;;;;;9.89;78.89;96675.53;29395;221;63005;-57
2024/02/16 00:02:15;;;;;;;0.50;0.50;;;;;;;9.91;78.98;96676.06;29394;222;64014;-57
2024/02/16 00:02:49;;;;;;;0.50;0.50;;;;;;;9.91;78.75;96667.91;29395;225;63005;-55
2024/02/16 00:03:21;;;;;;;0.50;0.50;;;;;;;9.89;78.74;96670.13;29395;375;63026;-57
2024/02/16 00:03:54;;;;;;;0.50;0.50;;;;;;;9.90;78.57;96671.72;29395;308;63005;-57
2024/02/16 00:04:28;;;;;;;0.50;0.50;;;;;;;9.93;78.42;96665.72;29395;227;63009;-58
2024/02/16 00:04:59;;;;;;;0.50;0.50;;;;;;;9.92;78.02;96669.53;29395;206;63003;-57
2024/02/16 00:05:31;;;;;;;0.50;0.50;;;;;;;9.92;78.15;96674.16;29395;205;63009;-57
2024/02/16 00:06:02;;;;;;;0.50;0.50;;;;;;;9.92;78.24;96664.13;29395;219;63007;-57
2024/02/16 00:06:34;;;;;;;0.50;0.50;;;;;;;9.91;78.04;96662.50;29395;243;63009;-56
2024/02/16 00:07:05;;;;;;;0.50;0.50;;;;;;;9.92;78.35;96664.13;29395;215;63004;-57
2024/02/16 00:07:37;;;;;;;0.50;0.50;;;;;;;9.92;78.37;96666.81;29394;263;64013;-56
2024/02/16 00:08:09;;;;;;;0.50;0.50;;;;;;;9.92;78.24;96668.72;29395;267;63004;-57
2024/02/16 00:08:41;;;;;;;0.50;0.50;;;;;;;9.92;77.97;96663.31;29395;202;63009;-57
2024/02/16 00:09:16;;;;;;;0.50;0.50;;;;;;;9.91;77.92;96667.12;29395;204;63005;-57
2024/02/16 00:09:47;;;;;;;0.50;0.50;;;;;;;9.91;78.22;96667.91;29395;236;63019;-57
2024/02/16 00:10:20;;;;;;;0.52;0.52;;;;;;;9.91;78.16;96669.81;29395;257;63005;-57
2024/02/16 00:10:52;;;;;;;0.52;0.52;;;;;;;9.92;78.01;96666.03;29395;215;63009;-70
2024/02/16 00:11:25;;;;;;;0.50;0.50;;;;;;;9.94;77.65;96661.91;29395;300;63005;-57
2024/02/16 00:11:56;;;;;;;0.50;0.50;;;;;;;9.95;77.23;96668.16;29395;216;63009;-57
2024/02/16 00:12:28;;;;;;;0.50;0.50;;;;;;;9.99;76.91;96663.75;29395;257;63004;-57
2024/02/16 00:12:59;;;;;;;0.50;0.50;;;;;;;9.98;76.85;96665.66;29393;203;64013;-57
2024/02/16 00:13:31;;;;;;;3.22;3.12;;;;;;;9.99;76.76;96669.97;29395;221;63004;-57
2024/02/16 00:14:02;;;;;;;0.50;0.50;;;;;;;9.97;76.77;96661.34;29395;257;63023;-57
2024/02/16 00:14:33;;;;;;;0.50;0.50;;;;;;;9.97;76.67;96666.75;29395;264;63004;-56
2024/02/16 00:15:06;;;;;;;0.50;0.50;;;;;;;9.96;76.77;96665.13;29395;218;63009;-57
2024/02/16 00:15:40;;;;;;;0.50;0.50;;;;;;;9.99;76.92;96669.16;29395;222;63005;-56
2024/02/16 00:16:12;;;;;;;0.50;0.50;;;;;;;9.99;76.37;96663.75;29395;206;63009;-57
2024/02/16 00:16:44;;;;;;;0.50;0.50;;;;;;;10.00;76.70;96668.88;29395;326;63005;-57
2024/02/16 00:17:15;;;;;;;0.50;0.50;;;;;;;9.99;76.35;96664.56;29395;248;63009;-57
2024/02/16 00:17:47;;;;;;;0.50;0.50;;;;;;;10.00;76.67;96666.16;29395;247;63005;-57
2024/02/16 00:18:18;;;;;;;0.50;0.50;;;;;;;10.02;76.37;96663.97;29394;254;64013;-57
2024/02/16 00:18:49;;;;;;;0.50;0.50;;;;;;;10.03;76.30;96667.47;29395;222;63005;-57
2024/02/16 00:19:21;;;;;;;0.50;0.50;;;;;;;10.02;76.06;96669.38;29395;209;63019;-57
2024/02/16 00:19:57;;;;;;;0.50;0.50;;;;;;;10.01;76.38;96670.50;29395;224;63004;-57
2024/02/16 00:20:31;;;;;;;0.50;0.50;;;;;;;9.99;76.34;96664.56;29394;264;64009;-57
2024/02/16 00:21:05;;;;;;;0.50;0.50;;;;;;;9.99;76.08;96653.72;29395;234;63012;-57
2024/02/16 00:21:36;;;;;;;0.50;0.50;;;;;;;9.98;76.31;96662.94;29395;215;63009;-58
2024/02/16 00:22:07;;;;;;;0.50;0.50;;;;;;;9.97;76.15;96661.34;29395;215;63004;-57
2024/02/16 00:22:39;;;;;;;0.50;0.50;;;;;;;9.96;75.88;96662.44;29395;211;63009;-57
2024/02/16 00:23:10;;;;;;;0.50;0.50;;;;;;;9.94;76.11;96664.63;29395;219;63005;-57
2024/02/16 00:23:41;;;;;;;0.50;0.50;;;;;;;9.96;76.39;96662.44;29394;249;64014;-57
2024/02/16 00:24:13;;;;;;;0.50;0.50;;;;;;;9.98;76.33;96662.94;29395;241;63005;-57
2024/02/16 00:24:45;;;;;;;0.50;0.50;;;;;;;9.99;75.94;96656.41;29395;279;63015;-57
2024/02/16 00:25:17;;;;;;;0.50;0.50;;;;;;;9.99;76.11;96664.56;29395;258;63005;-57
2024/02/16 00:25:49;;;;;;;0.50;0.50;;;;;;;9.98;75.77;96654.81;29395;208;63009;-57
2024/02/16 00:26:21;;;;;;;0.50;0.50;;;;;;;10.00;75.62;96657.22;29395;250;63005;-57
2024/02/16 00:26:52;;;;;;;0.50;0.50;;;;;;;10.03;75.41;96648.50;29395;216;63009;-57
2024/02/16 00:27:23;;;;;;;0.50;0.50;;;;;;;10.04;75.36;96659.06;29395;261;63004;-57
2024/02/16 00:27:55;;;;;;;0.50;0.50;;;;;;;10.04;75.10;96648.22;29395;202;63009;-56
2024/02/16 00:28:26;;;;;;;0.50;0.50;;;;;;;10.05;75.26;96652.50;29395;239;63000;-57
2024/02/16 00:28:57;;;;;;;0.50;0.50;;;;;;;10.04;75.30;96650.94;29394;218;64013;-57
2024/02/16 00:29:28;;;;;;;0.50;0.50;;;;;;;10.04;75.61;96650.94;29395;206;63004;-57
2024/02/16 00:30:02;;;;;;;0.50;0.50;;;;;;;10.04;75.23;96650.94;29395;309;63008;-57
2024/02/16 00:30:33;;;;;;;0.50;0.50;;;;;;;10.04;75.22;96648.22;29395;252;63005;-57
2024/02/16 00:31:05;;;;;;;0.50;0.50;;;;;;;10.04;75.56;96656.34;29394;219;64009;-58
2024/02/16 00:31:37;;;;;;;0.50;0.50;;;;;;;10.05;75.29;96647.09;29395;212;63005;-57
2024/02/16 00:32:08;;;;;;;0.50;0.50;;;;;;;10.05;74.83;96640.84;29395;250;63009;-57
2024/02/16 00:32:40;;;;;;;0.50;0.50;;;;;;;10.06;74.62;96647.87;29395;257;63005;-57
2024/02/16 00:33:11;;;;;;;0.50;0.50;;;;;;;10.07;74.61;96646.78;29395;250;63027;-58
2024/02/16 00:33:42;;;;;;;0.50;0.50;;;;;;;10.07;74.62;96644.09;29395;222;63013;-58
2024/02/16 00:34:14;;;;;;;0.50;0.50;;;;;;;10.06;74.23;96642.47;29394;202;64013;-57
2024/02/16 00:34:45;;;;;;;0.50;0.50;;;;;;;10.08;74.49;96649.22;29395;234;63004;-57
2024/02/16 00:35:17;;;;;;;0.50;0.50;;;;;;;10.07;74.34;96649.50;29395;252;63009;-57
2024/02/16 00:35:49;;;;;;;0.50;0.50;;;;;;;10.05;73.77;96644.38;29395;329;63004;-56
2024/02/16 00:36:20;;;;;;;0.50;0.50;;;;;;;10.04;73.71;96648.22;29395;231;63009;-56
2024/02/16 00:36:52;;;;;;;0.50;0.50;;;;;;;10.04;73.80;96650.94;29395;226;63004;-57
2024/02/16 00:37:24;;;;;;;0.50;0.50;;;;;;;10.03;74.07;96649.31;29395;229;63008;-57
2024/02/16 00:37:56;;;;;;;0.50;0.50;;;;;;;10.05;74.21;96647.09;29395;231;63005;-57
2024/02/16 00:38:27;;;;;;;0.50;0.50;;;;;;;10.05;74.01;96644.38;29395;217;63009;-57
2024/02/16 00:38:59;;;;;;;0.50;0.50;;;;;;;10.05;73.30;96640.84;29395;219;63005;-58
2024/02/16 00:39:33;;;;;;;0.50;0.50;;;;;;;10.03;73.16;96646.59;29394;210;64013;-57
2024/02/16 00:40:06;;;;;;;0.50;0.50;;;;;;;10.03;73.52;96646.59;29395;222;63008;-57
2024/02/16 00:40:43;;;;;;;0.50;0.50;;;;;;;10.04;74.38;96644.69;29395;235;63009;-57
2024/02/16 00:41:22;;;;;;;0.50;0.50;;;;;;;10.05;74.09;96647.09;29395;236;63014;-71
2024/02/16 00:41:53;;;;;;;0.50;0.50;;;;;;;10.08;74.14;96646.50;29395;272;63009;-57
2024/02/16 00:42:26;;;;;;;0.50;0.50;;;;;;;10.12;73.22;96640.50;29395;245;63004;-57
2024/02/16 00:42:58;;;;;;;0.50;0.50;;;;;;;10.13;73.20;96647.53;29395;235;63009;-57
2024/02/16 00:43:29;;;;;;;0.50;0.50;;;;;;;10.12;73.30;96646.72;29395;218;63004;-57
2024/02/16 00:44:00;;;;;;;0.50;0.50;;;;;;;10.13;73.31;96648.31;29395;218;63011;-57
2024/02/16 00:44:32;;;;;;;0.50;0.50;;;;;;;10.12;72.96;96637.78;29394;218;64008;-57
2024/02/16 00:45:04;;;;;;;0.50;0.50;;;;;;;10.13;72.66;96647.53;29395;240;63008;-57
2024/02/16 00:45:35;;;;;;;0.50;0.50;;;;;;;10.12;72.49;96646.72;29395;206;63005;-57
2024/02/16 00:46:06;;;;;;;0.50;0.50;;;;;;;10.13;72.81;96636.69;29395;213;63009;-57
2024/02/16 00:46:38;;;;;;;0.50;0.50;;;;;;;10.13;73.18;96642.09;29395;199;63005;-57
2024/02/16 00:47:10;;;;;;;0.50;0.50;;;;;;;10.12;73.08;96637.78;29395;234;63013;-56
2024/02/16 00:47:41;;;;;;;0.50;0.50;;;;;;;10.12;73.18;96633.16;29395;218;63005;-57
2024/02/16 00:48:12;;;;;;;0.50;0.50;;;;;;;10.11;72.90;96638.88;29395;211;63009;-56
2024/02/16 00:48:46;;;;;;;0.50;0.50;;;;;;;10.11;73.24;96634.25;29395;301;63004;-56
2024/02/16 00:49:17;;;;;;;0.50;0.50;;;;;;;10.13;73.30;96644.81;29395;231;63009;-57
2024/02/16 00:49:49;;;;;;;0.50;0.50;;;;;;;10.15;72.99;96639.91;29394;254;64009;-57
2024/02/16 00:50:20;;;;;;;0.50;0.50;;;;;;;10.08;72.89;96629.44;29395;228;63009;-56
2024/02/16 00:50:53;;;;;;;0.50;0.50;;;;;;;10.14;73.01;96638.28;29395;224;63004;-57
2024/02/16 00:51:25;;;;;;;0.60;0.60;;;;;;;10.15;73.23;96650.75;29395;242;63008;-69
2024/02/16 00:51:57;;;;;;;0.50;0.50;;;;;;;10.16;73.04;96641.50;29395;204;63016;-56
2024/02/16 00:52:28;;;;;;;0.50;0.50;;;;;;;10.17;72.15;96637.69;29395;239;63018;-57
2024/02/16 00:53:00;;;;;;;0.50;0.50;;;;;;;10.17;71.63;96633.09;29395;262;63005;-57
2024/02/16 00:53:31;;;;;;;0.50;0.50;;;;;;;10.19;71.97;96636.34;29395;205;63009;-57
2024/02/16 00:54:04;;;;;;;0.50;0.50;;;;;;;10.20;72.25;96637.16;29395;231;63005;-57
2024/02/16 00:54:35;;;;;;;0.50;0.50;;;;;;;10.19;72.13;96639.03;29395;272;63009;-57
2024/02/16 00:55:07;;;;;;;0.50;0.50;;;;;;;10.19;72.23;96636.34;29394;225;64009;-57
2024/02/16 00:55:41;;;;;;;0.50;0.50;;;;;;;10.19;72.52;96632.78;29395;236;63009;-58
2024/02/16 00:56:12;;;;;;;0.50;0.50;;;;;;;10.18;72.35;96633.88;29395;221;63004;-57
2024/02/16 00:56:43;;;;;;;0.50;0.50;;;;;;;10.19;72.50;96636.34;29395;260;63009;-57
2024/02/16 00:57:16;;;;;;;0.50;0.50;;;;;;;10.19;72.79;96630.91;29395;231;63006;-56
2024/02/16 00:57:47;;;;;;;0.50;0.50;;;;;;;10.20;72.42;96637.94;29395;215;63009;-56
2024/02/16 00:58:19;;;;;;;0.50;0.50;;;;;;;10.19;72.70;96638.22;29395;221;63004;-57
2024/02/16 00:58:51;;;;;;;0.50;0.50;;;;;;;10.20;72.73;96637.16;29395;254;63025;-57
2024/02/16 00:59:24;;;;;;;0.50;0.50;;;;;;;10.19;72.06;96627.38;29395;243;63004;-70
2024/02/16 00:59:55;;;;;;;0.50;0.50;;;;;;;10.18;71.66;96628.47;29395;235;63009;-57
2024/02/16 01:00:26;;;;;;;0.50;0.50;;;;;;;10.19;71.81;96635.50;29394;236;64009;-57
2024/02/16 01:00:59;;;;;;;0.50;0.50;;;;;;;10.19;71.88;96632.78;29395;236;63009;-56
2024/02/16 01:01:30;;;;;;;0.50;0.50;;;;;;;10.19;72.21;96641.75;29395;228;63005;-57
2024/02/16 01:02:01;;;;;;;0.50;0.50;;;;;;;10.19;72.41;96630.06;29395;220;63009;-57
2024/02/16 01:02:33;;;;;;;0.50;0.50;;;;;;;10.20;72.34;96639.84;29395;221;63005;-57
2024/02/16 01:03:04;;;;;;;0.50;0.50;;;;;;;10.20;72.29;96640.66;29395;207;63009;-58
2024/02/16 01:03:37;;;;;;;0.50;0.50;;;;;;;10.21;72.35;96642.28;29395;241;63005;-57
2024/02/16 01:04:09;;;;;;;0.50;0.50;;;;;;;10.22;72.16;96641.16;29395;385;63009;-57
2024/02/16 01:04:40;;;;;;;0.50;0.50;;;;;;;10.24;71.93;96640.88;29395;203;63004;-57
2024/02/16 01:05:12;;;;;;;0.50;0.50;;;;;;;10.29;71.49;96635.38;29395;296;63009;-56
2024/02/16 01:05:43;;;;;;;0.50;0.50;;;;;;;10.30;71.22;96636.97;29394;241;64009;-57
2024/02/16 01:06:15;;;;;;;0.50;0.50;;;;;;;10.30;71.20;96636.97;29395;206;63008;-56
2024/02/16 01:06:46;;;;;;;0.50;0.50;;;;;;;10.28;70.66;96625.63;29395;245;63004;-57
2024/02/16 01:07:17;;;;;;;0.50;0.50;;;;;;;10.27;71.20;96637.56;29395;202;63009;-70
2024/02/16 01:07:49;;;;;;;0.50;0.50;;;;;;;10.25;71.61;96639.78;29395;207;63005;-57
2024/02/16 01:08:20;;;;;;;0.50;0.50;;;;;;;10.24;71.87;96643.59;29395;214;63009;-58
2024/02/16 01:08:51;;;;;;;0.50;0.50;;;;;;;10.25;72.08;96642.47;29395;272;63005;-56
2024/02/16 01:09:23;;;;;;;0.50;0.50;;;;;;;10.25;71.66;96639.78;29395;209;63009;-57
2024/02/16 01:09:56;;;;;;;0.50;0.50;;;;;;;10.25;71.60;96642.47;29395;242;63005;-57
2024/02/16 01:10:27;;;;;;;0.50;0.50;;;;;;;10.25;71.95;96646.00;29395;221;63009;-57
2024/02/16 01:10:59;;;;;;;0.50;0.50;;;;;;;10.24;71.41;96643.59;29394;270;64009;-57
2024/02/16 01:11:31;;;;;;;0.50;0.50;;;;;;;10.23;71.38;96647.41;29395;254;63009;-57
2024/02/16 01:12:02;;;;;;;0.50;0.50;;;;;;;10.22;71.63;96640.37;29395;202;63004;-57
2024/02/16 01:12:34;;;;;;;0.50;0.50;;;;;;;10.24;71.45;96640.88;29395;202;63009;-57
2024/02/16 01:13:08;;;;;;;0.50;0.50;;;;;;;10.23;71.43;96642.78;29395;312;63004;-56
2024/02/16 01:13:40;;;;;;;0.50;0.50;;;;;;;10.24;71.41;96641.69;29395;229;63009;-56
2024/02/16 01:14:12;;;;;;;0.50;0.50;;;;;;;10.25;71.40;96647.91;29395;212;63004;-57
2024/02/16 01:14:43;;;;;;;0.50;0.50;;;;;;;10.25;71.19;96645.19;29395;244;63020;-57
2024/02/16 01:15:14;;;;;;;0.50;0.50;;;;;;;10.23;71.54;96648.19;29395;207;63005;-57
2024/02/16 01:15:47;;;;;;;0.45;0.45;;;;;;;10.22;71.44;96643.88;29395;230;63009;-57
2024/02/16 01:16:19;;;;;;;0.50;0.50;;;;;;;10.23;71.49;96641.97;29394;301;64009;-57
2024/02/16 01:16:50;;;;;;;0.50;0.50;;;;;;;10.23;71.54;96641.97;29395;217;63009;-57
2024/02/16 01:17:21;;;;;;;0.50;0.50;;;;;;;10.22;71.51;96648.50;29395;209;63005;-57
2024/02/16 01:17:53;;;;;;;0.50;0.50;;;;;;;10.24;71.66;96649.00;29395;196;63009;-57
2024/02/16 01:18:25;;;;;;;0.50;0.50;;;;;;;10.23;71.69;96653.63;29394;209;64009;-57
2024/02/16 01:18:57;;;;;;;0.50;0.50;;;;;;;10.24;71.50;96643.59;29395;202;63009;-57
2024/02/16 01:19:28;;;;;;;0.50;0.50;;;;;;;10.23;71.53;96641.97;29395;216;63004;-57
2024/02/16 01:19:59;;;;;;;0.50;0.50;;;;;;;10.23;71.42;96655.53;29395;255;63009;-57
2024/02/16 01:20:31;;;;;;;0.50;0.50;;;;;;;10.23;71.51;96647.41;29395;222;63004;-57
2024/02/16 01:21:05;;;;;;;0.50;0.50;;;;;;;10.23;71.71;96647.41;29395;278;63009;-56
2024/02/16 01:21:37;;;;;;;0.50;0.50;;;;;;;10.24;71.98;96649.00;29395;293;63004;-57
2024/02/16 01:22:08;;;;;;;0.50;0.50;;;;;;;10.23;71.85;96647.41;29394;263;64013;-57
2024/02/16 01:22:40;;;;;;;0.50;0.50;;;;;;;10.24;71.91;96646.31;29395;205;63005;-57
2024/02/16 01:23:11;;;;;;;0.50;0.50;;;;;;;10.24;71.91;96649.00;29395;205;63009;-57
2024/02/16 01:23:43;;;;;;;0.52;0.52;;;;;;;10.25;71.79;96645.19;29395;206;63009;-57
2024/02/16 01:24:14;;;;;;;0.50;0.50;;;;;;;10.26;71.36;96646.81;29395;236;63009;-57
2024/02/16 01:24:45;;;;;;;0.50;0.50;;;;;;;10.27;71.51;96653.84;29395;198;63005;-57
2024/02/16 01:25:16;;;;;;;0.50;0.50;;;;;;;10.28;71.51;96650.84;29395;211;63009;-56
2024/02/16 01:25:48;;;;;;;0.50;0.50;;;;;;;10.29;71.18;96635.38;29395;228;63004;-58
2024/02/16 01:26:19;;;;;;;0.50;0.50;;;;;;;10.29;71.18;96652.44;29395;225;63009;-57
2024/02/16 01:26:50;;;;;;;0.50;0.50;;;;;;;10.30;71.39;96653.25;29395;227;63004;-57
2024/02/16 01:27:22;;;;;;;0.50;0.50;;;;;;;10.30;71.49;96642.41;29394;314;64013;-57
2024/02/16 01:27:53;;;;;;;0.50;0.50;;;;;;;10.31;71.49;96649.44;29395;320;63004;-57
2024/02/16 01:28:24;;;;;;;0.50;0.50;;;;;;;10.30;71.60;96645.13;29395;400;63025;-57
2024/02/16 01:28:55;;;;;;;0.50;0.50;;;;;;;10.30;71.50;96645.94;29395;196;63004;-58
2024/02/16 01:29:27;;;;;;;0.50;0.50;;;;;;;10.30;71.30;96648.63;29395;227;63008;-57
2024/02/16 01:29:58;;;;;;;0.50;0.50;;;;;;;10.29;71.18;96648.94;29395;234;63005;-57
2024/02/16 01:30:29;;;;;;;0.50;0.50;;;;;;;10.27;71.33;96653.84;29395;240;63009;-57
2024/02/16 01:31:00;;;;;;;0.50;0.50;;;;;;;10.26;71.38;96652.22;29395;241;63005;-58
2024/02/16 01:31:31;;;;;;;0.50;0.50;;;;;;;10.24;71.51;96651.72;29395;210;63009;-57
2024/02/16 01:32:04;;;;;;;0.50;0.50;;;;;;;10.23;71.79;96645.50;29395;221;63005;-57
2024/02/16 01:32:35;;;;;;;0.50;0.50;;;;;;;10.22;71.71;96648.50;29394;239;64013;-57
2024/02/16 01:33:07;;;;;;;0.50;0.50;;;;;;;10.21;72.08;96638.75;29395;202;63009;-57
2024/02/16 01:33:38;;;;;;;0.50;0.50;;;;;;;10.22;72.15;96640.37;29395;213;63009;-57
2024/02/16 01:34:12;;;;;;;0.50;0.50;;;;;;;10.21;71.84;96644.97;29395;217;63004;-58
2024/02/16 01:34:46;;;;;;;0.50;0.50;;;;;;;10.21;72.05;96639.56;29395;234;63009;-57
2024/02/16 01:35:18;;;;;;;0.50;0.50;;;;;;;10.20;71.53;96640.66;29395;216;63004;-58
2024/02/16 01:35:49;;;;;;;0.50;0.50;;;;;;;10.20;71.67;96642.56;29395;199;63008;-58
2024/02/16 01:36:21;;;;;;;0.50;0.50;;;;;;;10.20;71.56;96642.56;29395;223;63004;-57
2024/02/16 01:36:52;;;;;;;0.50;0.50;;;;;;;10.19;71.65;96640.91;29395;219;63009;-57
2024/02/16 01:37:23;;;;;;;0.50;0.50;;;;;;;10.19;71.87;96644.47;29395;214;63005;-57
2024/02/16 01:37:55;;;;;;;0.50;0.50;;;;;;;10.18;72.06;96644.72;29394;224;64014;-57
2024/02/16 01:38:26;;;;;;;0.50;0.50;;;;;;;10.16;72.09;96641.50;29395;222;63005;-57
2024/02/16 01:38:58;;;;;;;0.50;0.50;;;;;;;10.15;72.18;96640.72;29395;245;63019;-57
2024/02/16 01:39:29;;;;;;;0.50;0.50;;;;;;;10.15;72.29;96645.31;29395;257;63005;-57
2024/02/16 01:40:00;;;;;;;0.50;0.50;;;;;;;10.14;72.18;96639.09;29395;225;63009;-57
2024/02/16 01:40:32;;;;;;;0.50;0.50;;;;;;;10.15;72.06;96637.19;29395;208;63005;-57
2024/02/16 01:41:04;;;;;;;0.50;0.50;;;;;;;10.13;71.90;96637.47;29395;202;63009;-57
2024/02/16 01:41:39;;;;;;;0.50;0.50;;;;;;;10.14;71.59;96638.28;29395;198;63004;-57
2024/02/16 01:42:11;;;;;;;0.50;0.50;;;;;;;10.14;71.61;96630.97;29395;224;63009;-57
2024/02/16 01:42:44;;;;;;;0.50;0.50;;;;;;;10.14;71.42;96628.25;29395;228;63004;-57
2024/02/16 01:43:22;;;;;;;0.50;0.50;;;;;;;10.14;71.62;96639.09;29394;199;64013;-57
2024/02/16 01:43:56;;;;;;;0.50;0.50;;;;;;;10.14;71.44;96635.56;29395;235;63004;-57
2024/02/16 01:44:28;;;;;;;0.50;0.50;;;;;;;10.13;71.72;96636.69;29395;263;63009;-56
2024/02/16 01:44:59;;;;;;;0.50;0.50;;;;;;;10.13;71.95;96633.97;29395;198;63005;-57
2024/02/16 01:45:30;;;;;;;0.50;0.50;;;;;;;10.13;72.14;96642.09;29395;237;63009;-57
2024/02/16 01:46:02;;;;;;;0.50;0.50;;;;;;;10.12;72.21;96635.06;29395;220;63005;-57
2024/02/16 01:46:35;;;;;;;0.50;0.50;;;;;;;10.10;72.11;96643.50;29395;242;63009;-70
2024/02/16 01:47:06;;;;;;;0.50;0.50;;;;;;;10.09;72.16;96637.28;29395;265;63005;-57
2024/02/16 01:47:39;;;;;;;0.50;0.50;;;;;;;10.09;71.77;96636.47;29395;203;63028;-57
2024/02/16 01:48:10;;;;;;;0.50;0.50;;;;;;;10.07;71.84;96639.47;29395;233;63008;-56
2024/02/16 01:48:43;;;;;;;0.50;0.50;;;;;;;10.09;72.01;96639.97;29394;291;64013;-56
2024/02/16 01:49:15;;;;;;;0.50;0.50;;;;;;;10.09;71.84;96639.97;29395;218;63004;-56
2024/02/16 01:49:46;;;;;;;0.50;0.50;;;;;;;10.08;72.04;96640.28;29395;269;63009;-56
2024/02/16 01:50:19;;;;;;;0.50;0.50;;;;;;;10.09;71.72;96636.47;29395;276;63004;-57
2024/02/16 01:50:53;;;;;;;0.50;0.50;;;;;;;10.12;71.12;96635.06;29395;254;63008;-57
2024/02/16 01:51:25;;;;;;;0.50;0.50;;;;;;;10.15;70.79;96645.31;29395;262;63004;-57
2024/02/16 01:51:57;;;;;;;0.50;0.50;;;;;;;10.17;70.84;96637.69;29395;238;63009;-57
2024/02/16 01:52:30;;;;;;;0.50;0.50;;;;;;;10.17;71.11;96638.50;29395;218;63005;-57
2024/02/16 01:53:02;;;;;;;0.50;0.50;;;;;;;10.19;70.81;96630.06;29395;210;63009;-57
2024/02/16 01:53:36;;;;;;;0.50;0.50;;;;;;;10.19;70.67;96625.50;29395;225;63005;-57
2024/02/16 01:54:08;;;;;;;0.50;0.50;;;;;;;10.18;70.50;96629.28;29394;235;64013;-57
2024/02/16 01:54:39;;;;;;;0.50;0.50;;;;;;;10.19;70.33;96625.50;29395;273;63005;-58
2024/02/16 01:55:12;;;;;;;0.50;0.50;;;;;;;10.22;70.62;96621.38;29395;216;63013;-57
2024/02/16 01:55:43;;;;;;;0.50;0.50;;;;;;;10.23;70.46;96625.72;29395;223;63005;-57
2024/02/16 01:56:15;;;;;;;0.50;0.50;;;;;;;10.25;70.65;96623.50;29395;240;63009;-57
2024/02/16 01:56:47;;;;;;;0.50;0.50;;;;;;;10.25;70.25;96626.22;29395;242;63004;-57
2024/02/16 01:57:18;;;;;;;0.50;0.50;;;;;;;10.24;70.74;96627.31;29394;243;64009;-57
2024/02/16 01:57:49;;;;;;;0.50;0.50;;;;;;;10.25;70.73;96623.50;29395;202;63004;-57
2024/02/16 01:58:21;;;;;;;0.50;0.50;;;;;;;10.22;70.80;96627.62;29395;213;63015;-58
2024/02/16 01:58:55;;;;;;;0.50;0.50;;;;;;;10.24;71.21;96630.03;29395;257;63004;-57
2024/02/16 01:59:27;;;;;;;0.60;0.60;;;;;;;10.23;71.77;96636.56;29394;248;64014;-55
2024/02/16 01:59:59;;;;;;;0.50;0.50;;;;;;;10.22;72.11;96637.66;29395;236;63005;-55
2024/02/16 02:00:32;;;;;;;0.50;0.50;;;;;;;10.23;72.88;96637.34;29395;202;63009;-55
2024/02/16 02:01:04;;;;;;;0.60;0.60;;;;;;;10.22;73.34;96637.66;29395;236;63005;-56
2024/02/16 02:01:36;;;;;;;0.50;0.50;;;;;;;10.21;73.24;96628.72;29395;243;63009;-56
2024/02/16 02:02:07;;;;;;;0.50;0.50;;;;;;;10.20;73.98;96632.53;29395;238;63005;-57
2024/02/16 02:02:39;;;;;;;0.50;0.50;;;;;;;10.18;74.37;96639.31;29395;268;63005;-55
2024/02/16 02:03:13;;;;;;;0.50;0.50;;;;;;;10.16;74.65;96638.81;29395;240;63005;-56
2024/02/16 02:03:44;;;;;;;0.50;0.50;;;;;;;10.15;75.28;96643.41;29395;233;63023;-56
2024/02/16 02:04:15;;;;;;;0.50;0.50;;;;;;;10.15;74.85;96640.72;29395;214;63004;-55
2024/02/16 02:04:47;;;;;;;0.50;0.50;;;;;;;10.14;75.59;96646.44;29394;198;64013;-56
2024/02/16 02:05:18;;;;;;;0.50;0.50;;;;;;;10.13;76.05;96647.53;29395;240;63000;-56
2024/02/16 02:05:50;;;;;;;0.50;0.50;;;;;;;10.11;75.87;96645.09;29395;218;63008;-56
2024/02/16 02:06:22;;;;;;;0.50;0.50;;;;;;;10.09;75.67;96642.69;29394;209;64008;-55
2024/02/16 02:06:54;;;;;;;0.50;0.50;;;;;;;10.08;76.43;96645.69;29395;208;63009;-55
2024/02/16 02:07:27;;;;;;;0.50;0.50;;;;;;;10.06;76.28;96645.19;29395;207;63006;-55
2024/02/16 02:07:58;;;;;;;0.50;0.50;;;;;;;10.06;76.11;96637.84;29395;197;63009;-56
2024/02/16 02:08:30;;;;;;;0.50;0.50;;;;;;;10.11;75.46;96642.41;29395;227;63005;-55
2024/02/16 02:09:01;;;;;;;0.50;0.50;;;;;;;10.11;75.71;96644.31;29395;236;63009;-57
2024/02/16 02:09:33;;;;;;;0.50;0.50;;;;;;;10.07;75.82;96642.19;29395;226;63005;-57
2024/02/16 02:10:05;;;;;;;0.60;0.60;;;;;;;10.06;75.40;96643.28;29395;208;63009;-57
2024/02/16 02:10:37;;;;;;;0.50;0.50;;;;;;;10.06;75.56;96639.75;29395;232;63005;-57
2024/02/16 02:11:09;;;;;;;0.50;0.50;;;;;;;10.05;75.34;96641.66;29395;242;63009;-57
2024/02/16 02:11:40;;;;;;;0.50;0.50;;;;;;;10.04;75.71;96642.78;29394;231;64009;-57
2024/02/16 02:12:11;;;;;;;0.50;0.50;;;;;;;10.02;75.67;96645.00;29395;243;63009;-57
2024/02/16 02:12:44;;;;;;;0.50;0.50;;;;;;;10.00;75.75;96644.47;29395;243;63004;-55
2024/02/16 02:13:15;;;;;;;0.50;0.50;;;;;;;9.99;75.36;96648.28;29395;221;63009;-57
2024/02/16 02:13:46;;;;;;;0.50;0.50;;;;;;;9.99;75.56;96639.34;29395;214;63004;-57
2024/02/16 02:14:17;;;;;;;0.50;0.50;;;;;;;9.97;75.54;96639.66;29395;264;63009;-57
2024/02/16 02:14:49;;;;;;;0.60;0.60;;;;;;;9.98;75.54;96640.44;29395;219;63005;-57
2024/02/16 02:15:21;;;;;;;0.50;0.50;;;;;;;9.96;75.34;96635.31;29395;197;63009;-57
2024/02/16 02:15:58;;;;;;;0.50;0.50;;;;;;;9.97;75.10;96634.22;29395;203;63005;-56
2024/02/16 02:16:29;;;;;;;0.50;0.50;;;;;;;9.98;75.09;96640.44;29395;206;63009;-57
2024/02/16 02:17:01;;;;;;;0.50;0.50;;;;;;;9.98;74.93;96640.44;29394;254;64009;-57
2024/02/16 02:17:32;;;;;;;0.50;0.50;;;;;;;9.99;75.12;96636.66;29395;199;63009;-57
2024/02/16 02:18:04;;;;;;;0.50;0.50;;;;;;;10.00;74.79;96633.63;29395;246;63005;-57
2024/02/16 02:18:35;;;;;;;0.50;0.50;;;;;;;10.00;74.92;96627.41;29395;300;63009;-57
2024/02/16 02:19:06;;;;;;;0.50;0.50;;;;;;;9.99;74.76;96632.03;29395;236;63004;-57
2024/02/16 02:19:41;;;;;;;0.50;0.50;;;;;;;9.99;74.52;96632.03;29395;288;63004;-57
2024/02/16 02:20:12;;;;;;;0.50;0.50;;;;;;;10.00;74.66;96628.22;29395;227;63004;-57
2024/02/16 02:20:44;;;;;;;0.50;0.50;;;;;;;10.01;74.71;96629.84;29395;202;63009;-57
2024/02/16 02:21:17;;;;;;;0.50;0.50;;;;;;;10.01;74.39;96629.03;29395;215;63004;-57
2024/02/16 02:21:50;;;;;;;0.50;0.50;;;;;;;10.02;74.29;96619.78;29395;247;63009;-57
2024/02/16 02:22:21;;;;;;;0.50;0.50;;;;;;;10.03;74.09;96621.41;29394;210;64009;-57
2024/02/16 02:22:53;;;;;;;0.60;0.60;;;;;;;10.04;74.13;96623.00;29395;238;63009;-58
2024/02/16 02:23:25;;;;;;;0.50;0.50;;;;;;;10.04;74.28;96615.69;29395;409;63000;-57
2024/02/16 02:23:56;;;;;;;0.50;0.50;;;;;;;10.05;74.53;96619.97;29394;246;64013;-57
2024/02/16 02:24:29;;;;;;;0.50;0.50;;;;;;;10.06;74.86;96621.59;29395;266;63005;-57
2024/02/16 02:25:00;;;;;;;0.50;0.50;;;;;;;10.05;75.11;96622.69;29395;404;63009;-57
2024/02/16 02:25:31;;;;;;;0.50;0.50;;;;;;;10.05;75.03;96622.69;29395;218;63005;-58
2024/02/16 02:26:04;;;;;;;0.50;0.50;;;;;;;10.04;75.15;96623.81;29395;212;63009;-57
2024/02/16 02:26:35;;;;;;;0.50;0.50;;;;;;;10.04;75.25;96629.25;29395;229;63004;-57
2024/02/16 02:27:07;;;;;;;0.50;0.50;;;;;;;10.03;74.98;96624.91;29395;429;63009;-58
2024/02/16 02:27:38;;;;;;;0.50;0.50;;;;;;;10.02;75.08;96617.87;29395;245;63004;-57
2024/02/16 02:28:09;;;;;;;0.50;0.50;;;;;;;10.03;75.07;96622.22;29395;252;63009;-58
2024/02/16 02:28:40;;;;;;;0.50;0.50;;;;;;;10.03;75.09;96627.62;29395;196;63004;-57
2024/02/16 02:29:12;;;;;;;0.50;0.50;;;;;;;10.03;74.76;96622.22;29394;197;64013;-57
2024/02/16 02:29:44;;;;;;;0.50;0.50;;;;;;;10.03;75.27;96627.62;29395;237;63005;-56
2024/02/16 02:30:16;;;;;;;0.50;0.50;;;;;;;10.03;75.01;96621.41;29395;218;63009;-57
2024/02/16 02:30:48;;;;;;;0.50;0.50;;;;;;;10.02;75.09;96623.31;29395;415;63005;-58
2024/02/16 02:31:19;;;;;;;0.50;0.50;;;;;;;10.01;75.00;96626.31;29395;234;63009;-57
2024/02/16 02:31:50;;;;;;;0.50;0.50;;;;;;;10.00;75.21;96617.37;29395;273;63005;-58
2024/02/16 02:32:21;;;;;;;0.50;0.50;;;;;;;10.00;75.13;96622.00;29395;240;63009;-57